createdAt,value
2019-04-10T00:01:36.108Z,999.90
2019-04-10T00:04:10.500Z,999.90
2019-04-10T00:06:44.657Z,999.90
2019-04-10T00:09:18.986Z,999.90
2019-04-10T00:11:53.491Z,999.90
2019-04-10T00:14:28.252Z,999.90
2019-04-10T00:17:02.710Z,999.90
2019-04-10T00:19:36.530Z,999.90
2019-04-10T00:22:10.322Z,999.90
2019-04-10T00:24:44.251Z,999.90
2019-04-10T00:27:18.660Z,999.90
2019-04-10T00:29:52.624Z,999.90
2019-04-10T00:32:27.818Z,999.90
2019-04-10T00:35:02.550Z,999.90
2019-04-10T00:37:37.149Z,999.90
2019-04-10T00:40:11.585Z,999.90
2019-04-10T00:42:45.462Z,999.90
2019-04-10T00:45:19.563Z,999.90
2019-04-10T00:47:53.714Z,999.90
2019-04-10T00:50:28.389Z,999.90
2019-04-10T00:53:03.006Z,999.90
2019-04-10T00:55:37.609Z,999.90
2019-04-10T00:58:12.092Z,999.90
2019-04-10T01:00:46.095Z,999.90
2019-04-10T01:03:38.185Z,999.90
2019-04-10T01:06:13.423Z,999.90
2019-04-10T01:08:47.425Z,999.90
2019-04-10T01:11:21.228Z,999.90
2019-04-10T01:13:55.206Z,999.90
2019-04-10T01:16:29.006Z,999.90
2019-04-10T01:19:03.694Z,999.90
2019-04-10T01:21:38.759Z,999.90
2019-04-10T01:24:13.181Z,999.90
2019-04-10T01:26:47.558Z,999.90
2019-04-10T01:29:21.738Z,999.90
2019-04-10T01:31:55.399Z,999.90
2019-04-10T01:34:29.535Z,999.90
2019-04-10T01:37:04.770Z,999.90
2019-04-10T01:39:38.653Z,999.90
2019-04-10T01:42:12.511Z,999.90
2019-04-10T01:44:47.052Z,999.90
2019-04-10T01:47:21.366Z,999.90
2019-04-10T01:49:55.783Z,999.90
2019-04-10T01:52:29.546Z,999.90
2019-04-10T01:55:18.166Z,999.90
2019-04-10T01:57:39.354Z,999.90
2019-04-10T02:00:16.484Z,999.90
2019-04-10T02:02:51.904Z,999.90
2019-04-10T02:05:25.576Z,999.90
2019-04-10T02:08:07.946Z,999.90
2019-04-10T02:10:36.326Z,999.90
2019-04-10T02:13:10.247Z,999.90
2019-04-10T02:15:44.289Z,999.90
2019-04-10T02:18:18.029Z,999.90
2019-04-10T02:20:51.759Z,999.90
2019-04-10T02:23:26.072Z,999.90
2019-04-10T02:25:59.896Z,999.90
2019-04-10T02:28:33.631Z,999.90
2019-04-10T02:31:07.375Z,999.90
2019-04-10T02:33:41.332Z,999.90
2019-04-10T02:36:15.116Z,999.90
2019-04-10T02:39:04.645Z,999.90
2019-04-10T02:41:25.514Z,999.90
2019-04-10T02:44:00.019Z,999.90
2019-04-10T02:46:34.795Z,999.90
2019-04-10T02:49:08.857Z,999.90
2019-04-10T02:51:43.296Z,999.90
2019-04-10T02:54:17.576Z,999.90
2019-04-10T02:56:52.789Z,999.90
2019-04-10T02:59:27.164Z,999.90
2019-04-10T03:02:02.367Z,999.90
2019-04-10T03:04:37.234Z,999.90
2019-04-10T03:07:11.659Z,999.90
2019-04-10T03:10:00.866Z,999.90
2019-04-10T03:12:22.079Z,999.90
2019-04-10T03:14:58.959Z,999.90
2019-04-10T03:17:33.263Z,999.90
2019-04-10T03:20:07.960Z,999.90
2019-04-10T03:22:41.616Z,999.90
2019-04-10T03:25:15.412Z,999.90
2019-04-10T03:27:50.137Z,999.90
2019-04-10T03:30:24.055Z,999.90
2019-04-10T03:33:22.652Z,999.90
2019-04-10T03:35:55.397Z,999.90
2019-04-10T03:38:29.951Z,999.90
2019-04-10T03:41:04.064Z,999.90
2019-04-10T03:43:38.433Z,999.90
2019-04-10T03:46:13.009Z,999.90
2019-04-10T03:48:47.322Z,999.90
2019-04-10T03:51:21.089Z,999.90
2019-04-10T03:53:55.095Z,999.90
2019-04-10T03:56:29.704Z,999.90
2019-04-10T03:59:04.147Z,999.90
2019-04-10T04:01:38.848Z,999.90
2019-04-10T04:04:13.322Z,999.90
2019-04-10T04:06:48.166Z,999.90
2019-04-10T04:09:22.235Z,999.90
2019-04-10T04:11:55.947Z,999.90
2019-04-10T04:14:30.506Z,999.90
2019-04-10T04:17:04.567Z,999.90
2019-04-10T04:19:38.308Z,999.90
2019-04-10T04:22:12.541Z,999.90
2019-04-10T04:24:46.906Z,999.90
2019-04-10T04:27:21.624Z,999.90
2019-04-10T04:29:55.399Z,999.90
2019-04-10T04:32:29.379Z,999.90
2019-04-10T04:35:03.347Z,999.90
2019-04-10T04:37:37.926Z,999.90
2019-04-10T04:40:11.879Z,999.90
2019-04-10T04:42:45.719Z,999.90
2019-04-10T04:45:19.700Z,999.90
2019-04-10T04:47:55.569Z,999.90
2019-04-10T04:50:29.677Z,999.90
2019-04-10T04:53:04.473Z,999.90
2019-04-10T04:55:38.214Z,999.90
2019-04-10T04:58:12.249Z,999.90
2019-04-10T05:00:46.019Z,999.90
2019-04-10T05:03:20.751Z,999.90
2019-04-10T05:05:56.196Z,999.90
2019-04-10T05:08:30.325Z,999.90
2019-04-10T05:11:04.372Z,999.90
2019-04-10T05:13:38.338Z,999.90
2019-04-10T05:16:12.089Z,999.90
2019-04-10T05:18:45.979Z,999.90
2019-04-10T05:21:21.008Z,999.90
2019-04-10T05:23:55.458Z,999.90
2019-04-10T05:26:29.500Z,999.90
2019-04-10T05:29:03.220Z,999.90
2019-04-10T05:31:36.951Z,999.90
2019-04-10T05:34:11.437Z,999.90
2019-04-10T05:36:45.445Z,999.90
2019-04-10T05:39:19.208Z,999.90
2019-04-10T05:41:52.890Z,999.90
2019-04-10T05:44:27.738Z,999.90
2019-04-10T05:47:01.719Z,999.90
2019-04-10T05:49:35.444Z,999.90
2019-04-10T05:52:10.386Z,999.90
2019-04-10T05:54:44.193Z,999.90
2019-04-10T05:57:18.075Z,999.90
2019-04-10T05:59:52.363Z,999.90
2019-04-10T06:02:27.135Z,999.90
2019-04-10T06:05:02.337Z,999.90
2019-04-10T06:07:37.135Z,999.90
2019-04-10T06:10:11.313Z,999.90
2019-04-10T06:12:45.112Z,999.90
2019-04-10T06:15:19.176Z,999.90
2019-04-10T06:17:52.921Z,999.90
2019-04-10T06:20:26.637Z,999.90
2019-04-10T06:23:01.265Z,999.90
2019-04-10T06:25:38.145Z,999.90
2019-04-10T06:28:10.448Z,999.90
2019-04-10T06:30:44.155Z,999.90
2019-04-10T06:33:18.086Z,999.90
2019-04-10T06:35:52.860Z,999.90
2019-04-10T06:38:26.897Z,999.90
2019-04-10T06:41:00.622Z,999.90
2019-04-10T06:43:34.427Z,999.90
2019-04-10T06:46:08.442Z,999.90
2019-04-10T06:48:42.482Z,999.90
2019-04-10T06:51:18.877Z,999.90
2019-04-10T06:54:01.797Z,999.90
2019-04-10T06:56:27.603Z,999.90
2019-04-10T06:59:02.526Z,999.90
2019-04-10T07:01:45.422Z,999.90
2019-04-10T07:04:12.152Z,999.90
2019-04-10T07:06:55.708Z,999.90
2019-04-10T07:09:26.159Z,999.90
2019-04-10T07:12:00.189Z,999.90
2019-04-10T07:14:36.504Z,999.90
2019-04-10T07:17:10.496Z,999.90
2019-04-10T07:19:45.947Z,999.90
2019-04-10T07:22:20.724Z,999.90
2019-04-10T07:24:54.561Z,999.90
2019-04-10T07:27:28.350Z,999.90
2019-04-10T07:30:02.168Z,999.90
2019-04-10T07:32:36.191Z,999.90
2019-04-10T07:35:13.997Z,999.90
2019-04-10T07:37:52.753Z,999.90
2019-04-10T07:40:22.876Z,999.90
2019-04-10T07:42:56.873Z,999.90
2019-04-10T07:45:30.726Z,999.90
2019-04-10T07:48:04.696Z,999.90
2019-04-10T07:50:39.062Z,999.90
2019-04-10T07:53:12.884Z,999.90
2019-04-10T07:55:58.338Z,999.90
2019-04-10T07:58:23.533Z,999.90
2019-04-10T08:00:57.535Z,999.90
2019-04-10T08:03:31.638Z,968.17
2019-04-10T08:06:06.728Z,958.77
2019-04-10T08:08:40.654Z,999.90
2019-04-10T08:11:15.425Z,551.87
2019-04-10T08:13:49.297Z,492.23
2019-04-10T08:16:23.233Z,19.70
2019-04-10T08:18:57.060Z,4.00
2019-04-10T08:21:31.669Z,4.10
2019-04-10T08:24:05.941Z,3.13
2019-04-10T08:26:40.946Z,3.50
2019-04-10T08:29:14.705Z,2.53
2019-04-10T08:31:48.667Z,2.43
2019-04-10T08:34:22.458Z,2.60
2019-04-10T08:36:56.780Z,2.57
2019-04-10T08:39:38.781Z,2.63
2019-04-10T08:42:06.501Z,3.47
2019-04-10T08:44:40.791Z,3.10
2019-04-10T08:47:15.256Z,2.83
2019-04-10T08:49:49.446Z,2.60
2019-04-10T08:52:24.187Z,3.80
2019-04-10T08:54:59.522Z,2.70
2019-04-10T08:57:34.200Z,2.60
2019-04-10T09:00:10.196Z,2.50
2019-04-10T09:02:44.434Z,3.97
2019-04-10T09:05:19.338Z,3.00
2019-04-10T09:07:54.662Z,3.00
2019-04-10T09:10:28.577Z,3.13
2019-04-10T09:13:02.579Z,3.20
2019-04-10T09:15:36.523Z,2.83
2019-04-10T09:18:11.363Z,3.10
2019-04-10T09:20:46.919Z,3.10
2019-04-10T09:23:30.751Z,2.83
2019-04-10T09:25:57.556Z,3.00
2019-04-10T09:28:32.710Z,3.20
2019-04-10T09:31:07.372Z,2.90
2019-04-10T09:33:41.382Z,3.10
2019-04-10T09:36:15.224Z,3.23
2019-04-10T09:38:48.970Z,3.40
2019-04-10T09:41:22.794Z,3.30
2019-04-10T09:43:58.184Z,3.13
2019-04-10T09:46:33.005Z,3.00
2019-04-10T09:49:07.139Z,2.80
2019-04-10T09:51:41.138Z,2.70
2019-04-10T09:54:15.450Z,3.10
2019-04-10T09:56:50.694Z,3.23
2019-04-10T09:59:32.925Z,3.43
2019-04-10T10:02:00.752Z,3.00
2019-04-10T10:04:34.471Z,3.13
2019-04-10T10:07:08.309Z,3.23
2019-04-10T10:09:43.140Z,3.53
2019-04-10T10:12:17.950Z,3.33
2019-04-10T10:14:51.958Z,3.27
2019-04-10T10:17:25.700Z,3.27
2019-04-10T10:19:59.561Z,3.90
2019-04-10T10:22:33.587Z,2.60
2019-04-10T10:25:08.701Z,3.27
2019-04-10T10:27:42.724Z,3.50
2019-04-10T10:30:17.626Z,3.00
2019-04-10T10:32:51.355Z,3.73
2019-04-10T10:35:25.283Z,3.17
2019-04-10T10:37:59.373Z,3.63
2019-04-10T10:40:33.962Z,3.03
2019-04-10T10:43:07.934Z,3.60
2019-04-10T10:45:42.814Z,3.53
2019-04-10T10:48:17.535Z,3.20
2019-04-10T10:50:51.504Z,3.60
2019-04-10T10:53:25.293Z,3.30
2019-04-10T10:55:59.891Z,3.33
2019-04-10T10:58:34.042Z,3.60
2019-04-10T11:01:07.902Z,3.00
2019-04-10T11:03:42.545Z,3.53
2019-04-10T11:06:17.750Z,3.50
2019-04-10T11:08:51.549Z,3.20
2019-04-10T11:11:25.329Z,2.90
2019-04-10T11:13:59.062Z,3.00
2019-04-10T11:16:33.927Z,2.90
2019-04-10T11:19:08.059Z,3.07
2019-04-10T11:21:42.953Z,3.00
2019-04-10T11:24:17.527Z,2.60
2019-04-10T11:29:38.993Z,3.17
2019-04-10T11:32:14.354Z,2.33
2019-04-10T11:34:49.375Z,2.80
2019-04-10T11:37:33.759Z,2.33
2019-04-10T11:40:01.219Z,2.57
2019-04-10T11:42:35.163Z,2.40
2019-04-10T11:45:10.903Z,2.67
2019-04-10T11:47:45.017Z,2.50
2019-04-10T11:50:19.469Z,2.47
2019-04-10T11:52:55.913Z,2.30
2019-04-10T11:55:29.734Z,2.23
2019-04-10T11:58:05.365Z,2.33
2019-04-10T12:00:50.760Z,2.87
2019-04-10T12:03:18.180Z,2.33
2019-04-10T12:05:55.137Z,2.57
2019-04-10T12:08:50.278Z,1.90
2019-04-10T12:13:38.619Z,1.97
2019-04-10T12:16:12.630Z,2.30
2019-04-10T12:18:46.820Z,2.00
2019-04-10T12:21:20.613Z,2.23
2019-04-10T12:23:54.317Z,2.47
2019-04-10T12:26:28.361Z,2.67
2019-04-10T12:29:02.507Z,2.00
2019-04-10T12:31:36.495Z,2.40
2019-04-10T12:34:10.780Z,2.30
2019-04-10T12:36:44.857Z,2.73
2019-04-10T12:39:18.645Z,2.37
2019-04-10T12:41:52.353Z,2.37
2019-04-10T12:44:26.123Z,2.20
2019-04-10T12:46:59.900Z,2.50
2019-04-10T12:49:33.935Z,2.27
2019-04-10T12:52:08.081Z,3.63
2019-04-10T12:54:42.738Z,2.30
2019-04-10T12:57:17.011Z,2.10
2019-04-10T12:59:50.712Z,2.00
2019-04-10T13:02:24.426Z,1.50
2019-04-10T13:04:58.128Z,2.17
2019-04-10T13:07:31.837Z,2.10
2019-04-10T13:10:06.574Z,2.00
2019-04-10T13:12:40.342Z,1.90
2019-04-10T13:15:15.074Z,1.77
2019-04-10T13:17:49.108Z,2.17
2019-04-10T13:20:23.981Z,1.73
2019-04-10T13:22:58.317Z,2.10
2019-04-10T13:25:32.472Z,2.20
2019-04-10T13:28:08.228Z,2.20
2019-04-10T13:30:50.635Z,2.30
2019-04-10T13:33:17.310Z,2.17
2019-04-10T13:35:51.189Z,2.40
2019-04-10T13:38:30.934Z,2.20
2019-04-10T13:41:01.870Z,2.43
2019-04-10T13:43:36.031Z,2.47
2019-04-10T13:46:10.818Z,2.57
2019-04-10T13:48:45.214Z,2.80
2019-04-10T13:51:19.348Z,3.23
2019-04-10T13:53:53.001Z,2.60
2019-04-10T13:56:26.844Z,3.87
2019-04-10T13:59:01.066Z,2.77
2019-04-10T14:01:35.701Z,2.87
2019-04-10T14:04:09.424Z,2.90
2019-04-10T14:06:44.155Z,3.27
2019-04-10T14:09:31.104Z,2.60
2019-04-10T14:11:54.813Z,2.93
2019-04-10T14:14:28.837Z,3.17
2019-04-10T14:17:04.408Z,2.60
2019-04-10T14:19:39.403Z,2.63
2019-04-10T14:22:13.602Z,3.23
2019-04-10T14:24:49.726Z,2.67
2019-04-10T14:27:25.339Z,2.57
2019-04-10T14:29:59.042Z,2.70
2019-04-10T14:32:37.714Z,2.70
2019-04-10T14:35:11.633Z,2.63
2019-04-10T14:37:45.681Z,3.03
2019-04-10T14:40:20.070Z,2.57
2019-04-10T14:42:55.595Z,2.73
2019-04-10T14:45:29.758Z,2.73
2019-04-10T14:48:03.604Z,2.70
2019-04-10T14:50:37.860Z,2.27
2019-04-10T14:53:12.158Z,2.10
2019-04-10T14:55:46.050Z,2.20
2019-04-10T14:58:25.154Z,2.70
2019-04-10T15:00:57.823Z,2.87
2019-04-10T15:03:32.778Z,2.30
2019-04-10T15:06:07.685Z,2.30
2019-04-10T15:08:41.852Z,2.30
2019-04-10T15:11:16.266Z,2.77
2019-04-10T15:13:50.767Z,2.70
2019-04-10T15:16:25.267Z,2.13
2019-04-10T15:19:00.316Z,2.50
2019-04-10T15:21:34.748Z,2.50
2019-04-10T15:24:08.947Z,2.80
2019-04-10T15:26:42.698Z,2.80
2019-04-10T15:29:16.544Z,2.87
2019-04-10T15:31:50.619Z,3.40
2019-04-10T15:34:24.429Z,2.70
2019-04-10T15:36:58.549Z,2.70
2019-04-10T15:39:37.080Z,2.63
2019-04-10T15:42:07.979Z,4.20
2019-04-10T15:44:42.772Z,3.83
2019-04-10T15:47:22.176Z,2.90
2019-04-10T15:49:53.528Z,3.67
2019-04-10T15:52:27.603Z,4.53
2019-04-10T15:55:01.655Z,2.83
2019-04-10T15:57:44.846Z,3.20
2019-04-10T16:00:12.839Z,4.10
2019-04-10T16:02:48.916Z,2.83
2019-04-10T16:05:23.671Z,3.57
2019-04-10T16:07:58.587Z,4.43
2019-04-10T16:10:50.461Z,4.33
2019-04-10T16:13:32.536Z,3.77
2019-04-10T16:16:25.502Z,4.00
2019-04-10T16:19:10.591Z,4.77
2019-04-10T16:21:45.731Z,4.40
2019-04-10T16:24:20.649Z,5.00
2019-04-10T16:26:54.528Z,3.63
2019-04-10T16:29:28.848Z,4.27
2019-04-10T16:32:04.176Z,3.80
2019-04-10T16:34:38.698Z,3.20
2019-04-10T16:37:12.673Z,3.13
2019-04-10T16:39:57.812Z,4.00
2019-04-10T16:42:22.868Z,4.00
2019-04-10T16:44:57.611Z,3.40
2019-04-10T16:47:32.379Z,3.80
2019-04-10T16:50:06.727Z,2.90
2019-04-10T16:52:41.058Z,2.97
2019-04-10T16:55:15.639Z,3.00
2019-04-10T16:57:49.623Z,3.23
2019-04-10T17:00:23.704Z,2.63
2019-04-10T17:02:57.610Z,2.80
2019-04-10T17:05:33.754Z,3.03
2019-04-10T17:08:07.792Z,3.00
2019-04-10T17:10:42.843Z,2.73
2019-04-10T17:13:18.313Z,3.33
2019-04-10T17:15:53.377Z,2.77
2019-04-10T17:18:27.541Z,3.30
2019-04-10T17:21:01.252Z,2.43
2019-04-10T17:23:36.422Z,3.90
2019-04-10T17:26:11.023Z,2.80
2019-04-10T17:28:44.952Z,2.40
2019-04-10T17:31:19.144Z,3.10
2019-04-10T17:33:54.337Z,2.63
2019-04-10T17:36:29.335Z,3.13
2019-04-10T17:39:03.702Z,3.50
2019-04-10T17:41:37.455Z,3.53
2019-04-10T17:44:11.708Z,3.50
2019-04-10T17:46:45.641Z,3.73
2019-04-10T17:49:19.724Z,4.10
2019-04-10T17:51:54.603Z,3.10
2019-04-10T17:54:29.788Z,3.00
2019-04-10T17:57:04.537Z,3.37
2019-04-10T17:59:38.572Z,3.20
2019-04-10T18:02:13.755Z,3.73
2019-04-10T18:04:48.329Z,4.70
2019-04-10T18:07:22.314Z,4.90
2019-04-10T18:09:56.215Z,4.40
2019-04-10T18:12:30.096Z,5.07
2019-04-10T18:15:04.259Z,5.03
2019-04-10T18:17:38.714Z,5.27
2019-04-10T18:20:12.945Z,6.00
2019-04-10T18:22:46.992Z,6.37
2019-04-10T18:25:22.212Z,11.17
2019-04-10T18:27:56.905Z,12.17
2019-04-10T18:30:32.984Z,50.23
2019-04-10T18:33:07.687Z,47.70
2019-04-10T18:35:42.811Z,70.17
2019-04-10T18:38:17.399Z,91.97
2019-04-10T18:40:55.718Z,132.13
2019-04-10T18:43:28.245Z,152.13
2019-04-10T18:46:10.718Z,147.87
2019-04-10T18:48:38.916Z,172.93
2019-04-10T18:51:13.887Z,139.30
2019-04-10T18:53:49.125Z,131.17
2019-04-10T18:56:23.283Z,142.40
2019-04-10T18:59:05.726Z,300.87
2019-04-10T19:02:03.249Z,299.93
2019-04-10T19:04:43.268Z,376.17
2019-04-10T19:07:17.436Z,521.73
2019-04-10T19:09:52.563Z,642.60
2019-04-10T19:12:26.601Z,685.30
2019-04-10T19:15:00.345Z,806.07
2019-04-10T19:17:35.106Z,778.00
2019-04-10T19:20:11.114Z,771.30
2019-04-10T19:22:44.928Z,729.70
2019-04-10T19:25:18.872Z,692.73
2019-04-10T19:27:52.784Z,599.47
2019-04-10T19:30:41.716Z,486.47
2019-04-10T19:33:16.209Z,453.30
2019-04-10T19:35:50.933Z,369.30
2019-04-10T19:38:25.254Z,163.03
2019-04-10T19:41:00.488Z,102.77
2019-04-10T19:43:34.771Z,115.70
2019-04-10T19:46:09.903Z,78.80
2019-04-10T19:48:43.790Z,66.37
2019-04-10T19:51:18.390Z,106.50
2019-04-10T19:53:53.343Z,253.17
2019-04-10T19:56:27.323Z,449.20
2019-04-10T19:59:01.320Z,659.10
2019-04-10T20:01:36.075Z,956.67
2019-04-10T20:04:10.447Z,943.53
2019-04-10T20:06:44.831Z,956.37
2019-04-10T20:09:20.066Z,999.90
2019-04-10T20:11:56.141Z,999.90
2019-04-10T20:14:30.914Z,999.90
2019-04-10T20:17:05.936Z,999.90
2019-04-10T20:19:40.381Z,999.90
2019-04-10T20:22:14.737Z,999.90
2019-04-10T20:24:50.111Z,999.90
2019-04-10T20:27:24.088Z,999.90
2019-04-10T20:29:58.050Z,999.90
2019-04-10T20:32:32.239Z,999.90
2019-04-10T20:35:07.686Z,999.90
2019-04-10T20:37:42.838Z,999.90
2019-04-10T20:40:18.065Z,999.90
2019-04-10T20:42:52.356Z,999.90
2019-04-10T20:45:26.663Z,999.90
2019-04-10T20:48:00.785Z,999.90
2019-04-10T20:50:36.298Z,999.90
2019-04-10T20:53:10.005Z,999.90
2019-04-10T20:55:44.085Z,999.90
2019-04-10T20:58:19.096Z,999.90
2019-04-10T21:00:54.759Z,999.90
2019-04-10T21:03:28.563Z,999.90
2019-04-10T21:06:02.411Z,999.90
2019-04-10T21:08:36.352Z,999.90
2019-04-10T21:11:10.229Z,999.90
2019-04-10T21:13:44.698Z,999.90
2019-04-10T21:16:19.729Z,999.90
2019-04-10T21:18:53.938Z,999.90
2019-04-10T21:21:27.749Z,999.90
2019-04-10T21:24:02.997Z,999.90
2019-04-10T21:26:37.314Z,999.90
2019-04-10T21:29:16.371Z,999.90
2019-04-10T21:32:01.100Z,999.90
2019-04-10T21:34:39.095Z,999.90
2019-04-10T21:37:13.588Z,999.90
2019-04-10T21:39:47.505Z,999.90
2019-04-10T21:42:24.272Z,999.90
2019-04-10T21:44:57.542Z,999.90
2019-04-10T21:47:31.414Z,999.90
2019-04-10T21:50:06.892Z,999.90
2019-04-10T21:52:41.396Z,999.90
2019-04-10T21:55:15.242Z,999.90
2019-04-10T21:57:49.143Z,999.90
2019-04-10T22:00:36.559Z,999.90
2019-04-10T22:03:11.240Z,999.90
2019-04-10T22:05:47.237Z,999.90
2019-04-10T22:08:31.571Z,999.90
2019-04-10T22:11:06.394Z,999.90
2019-04-10T22:13:40.364Z,999.90
2019-04-10T22:16:17.848Z,999.90
2019-04-10T22:18:52.027Z,999.90
2019-04-10T22:21:25.851Z,999.90
2019-04-10T22:24:00.972Z,999.90
2019-04-10T22:26:34.918Z,999.90
2019-04-10T22:29:10.618Z,999.90
2019-04-10T22:31:45.817Z,999.90
2019-04-10T22:34:19.960Z,999.90
2019-04-10T22:36:53.775Z,999.90
2019-04-10T22:39:27.883Z,999.90
2019-04-10T22:42:01.964Z,999.90
2019-04-10T22:44:40.881Z,999.90
2019-04-10T22:47:11.833Z,999.90
2019-04-10T22:49:45.774Z,999.90
2019-04-10T22:52:20.063Z,999.90
2019-04-10T22:54:55.262Z,999.90
2019-04-10T22:57:29.331Z,999.90
2019-04-10T23:00:03.425Z,999.90
2019-04-10T23:02:37.676Z,999.90
2019-04-10T23:05:12.034Z,999.90
2019-04-10T23:07:47.162Z,999.90
2019-04-10T23:10:21.612Z,999.90
2019-04-10T23:13:01.398Z,999.90
2019-04-10T23:15:31.456Z,999.90
2019-04-10T23:18:05.580Z,999.90
2019-04-10T23:20:39.781Z,999.90
2019-04-10T23:23:14.702Z,999.90
2019-04-10T23:25:48.863Z,999.90
2019-04-10T23:28:23.386Z,999.90
2019-04-10T23:30:57.371Z,999.90
2019-04-10T23:33:33.031Z,999.90
2019-04-10T23:36:07.673Z,999.90
2019-04-10T23:38:41.941Z,999.90
2019-04-10T23:41:15.729Z,999.90
2019-04-10T23:43:49.457Z,999.90
2019-04-10T23:46:23.594Z,999.90
2019-04-10T23:48:57.666Z,999.90
2019-04-10T23:51:31.570Z,999.90
2019-04-10T23:54:05.815Z,999.90
2019-04-10T23:56:39.908Z,999.90
2019-04-10T23:59:14.952Z,999.90
